Time;durP1;ratioP1;P1;durP2;ratioP2;P2;SDS_P1;SDS_P2;PMS_P1;PMS_P2;Temp;Humidity;BMP_temperature;BMP_pressure;BME280_temperature;BME280_humidity;BME280_pressure;Samples;Min_cycle;Max_cycle;Signal;HPM_P1;HPM_P2
2022/11/16 05:04:44;;;;;;;3.90;3.50;;;10.60;99.90;;;;;;5505235;23;20228;-71
2022/11/16 05:07:12;;;;;;;6.80;4.03;;;10.60;99.90;;;;;;4956736;29;20182;-73
2022/11/16 05:09:41;;;;;;;3.83;3.53;;;10.70;99.90;;;;;;4939795;29;20269;-72
2022/11/16 05:12:08;;;;;;;4.55;4.15;;;10.70;99.90;;;;;;4956955;29;20441;-73
2022/11/16 05:14:34;;;;;;;4.15;3.63;;;10.70;99.90;;;;;;4956535;29;20584;-73
2022/11/16 05:17:00;;;;;;;4.57;3.87;;;10.70;99.90;;;;;;4957407;29;20187;-73
2022/11/16 05:22:10;;;;;;;4.35;3.95;;;10.80;99.90;;;;;;4957358;29;20180;-73
2022/11/16 05:24:35;;;;;;;4.60;3.90;;;10.80;99.90;;;;;;4956361;29;20194;-73
2022/11/16 05:27:06;;;;;;;3.13;2.83;;;10.80;99.90;;;;;;4956779;29;20178;-73
2022/11/16 05:29:32;;;;;;;3.28;3.00;;;10.90;99.90;;;;;;4957119;29;20273;-74
2022/11/16 05:31:58;;;;;;;3.05;2.92;;;10.90;99.90;;;;;;4956485;29;20173;-73
2022/11/16 05:34:24;;;;;;;4.50;3.67;;;10.90;99.90;;;;;;4955518;29;20191;-74
2022/11/16 05:36:50;;;;;;;3.30;3.00;;;10.80;99.90;;;;;;4956809;29;20405;-74
2022/11/16 05:39:15;;;;;;;3.07;2.73;;;10.80;99.90;;;;;;4956595;29;20911;-72
2022/11/16 05:41:41;;;;;;;5.13;3.43;;;10.80;99.90;;;;;;4956611;29;20170;-73
2022/11/16 05:44:06;;;;;;;4.03;3.57;;;10.80;99.90;;;;;;4956026;29;20645;-73
2022/11/16 05:46:33;;;;;;;3.93;3.60;;;10.70;99.90;;;;;;4956418;29;20341;-73
2022/11/16 05:48:59;;;;;;;3.35;3.05;;;10.70;99.90;;;;;;4955954;29;20166;-73
2022/11/16 05:51:25;;;;;;;8.17;4.33;;;10.70;99.90;;;;;;4939124;29;20671;-73
2022/11/16 05:53:50;;;;;;;6.10;3.50;;;10.70;99.90;;;;;;4955937;29;20213;-73
2022/11/16 05:56:16;;;;;;;5.80;5.27;;;10.70;99.90;;;;;;4956102;29;20173;-73
2022/11/16 05:58:43;;;;;;;5.20;4.80;;;10.70;99.90;;;;;;4956131;29;20183;-72
2022/11/16 06:01:09;;;;;;;7.28;5.53;;;10.70;99.90;;;;;;4955975;29;20248;-74
2022/11/16 06:03:35;;;;;;;4.88;4.40;;;10.60;99.90;;;;;;4955486;29;20280;-74
2022/11/16 06:06:02;;;;;;;5.83;5.10;;;10.70;99.90;;;;;;4938269;29;20311;-72
2022/11/16 06:08:28;;;;;;;5.22;4.82;;;10.60;99.90;;;;;;4939288;29;20576;-74
2022/11/16 06:10:53;;;;;;;4.87;4.40;;;10.60;99.90;;;;;;4955910;29;20237;-73
2022/11/16 06:13:19;;;;;;;4.27;3.93;;;10.50;99.90;;;;;;4955372;29;20400;-72
2022/11/16 06:15:45;;;;;;;4.60;4.20;;;10.50;99.90;;;;;;4955764;29;20181;-73
2022/11/16 06:18:11;;;;;;;7.00;3.60;;;10.40;99.90;;;;;;4938478;29;20180;-73
2022/11/16 06:20:38;;;;;;;4.47;3.70;;;10.40;99.90;;;;;;4955855;29;20483;-73
2022/11/16 06:23:04;;;;;;;3.55;3.25;;;10.40;99.90;;;;;;4955135;29;20434;-73
2022/11/16 06:25:30;;;;;;;5.93;4.53;;;10.40;99.90;;;;;;4955530;29;20206;-73
2022/11/16 06:27:57;;;;;;;4.55;4.15;;;10.30;99.90;;;;;;4938483;29;20523;-73
2022/11/16 06:30:23;;;;;;;5.32;4.00;;;10.30;99.90;;;;;;4955418;28;20177;-71
2022/11/16 06:32:49;;;;;;;4.53;3.80;;;10.40;99.90;;;;;;4937578;29;20621;-70
2022/11/16 06:35:15;;;;;;;5.57;4.73;;;10.40;99.90;;;;;;4955251;29;20198;-72
2022/11/16 06:37:40;;;;;;;3.50;3.00;;;10.40;99.90;;;;;;4955636;29;20181;-72
2022/11/16 06:40:07;;;;;;;3.87;3.67;;;10.40;99.90;;;;;;4934536;29;20421;-70
2022/11/16 06:42:32;;;;;;;3.40;3.15;;;10.40;99.90;;;;;;4935728;29;20546;-70
2022/11/16 06:44:58;;;;;;;3.60;3.30;;;10.40;99.90;;;;;;4935803;29;20206;-72
2022/11/16 06:47:23;;;;;;;5.40;4.03;;;10.50;99.90;;;;;;4936400;29;20204;-72
2022/11/16 06:49:49;;;;;;;4.23;3.77;;;10.50;99.90;;;;;;4936032;29;20172;-72
2022/11/16 06:52:14;;;;;;;4.93;4.30;;;10.50;99.90;;;;;;4936025;29;20168;-71
2022/11/16 06:54:40;;;;;;;6.27;4.80;;;10.50;99.90;;;;;;4935579;29;20189;-70
2022/11/16 06:57:06;;;;;;;6.27;4.33;;;10.60;99.90;;;;;;4935304;29;20174;-70
2022/11/16 06:59:31;;;;;;;7.20;4.43;;;10.50;99.90;;;;;;4935272;29;20646;-71
2022/11/16 07:01:57;;;;;;;4.40;3.90;;;10.60;99.90;;;;;;4935666;29;20594;-70
2022/11/16 07:04:22;;;;;;;5.70;4.47;;;10.60;99.90;;;;;;4935099;29;20198;-70
2022/11/16 07:06:48;;;;;;;4.93;4.43;;;10.60;99.90;;;;;;4935387;29;20572;-71
2022/11/16 07:09:14;;;;;;;3.90;3.50;;;10.60;99.90;;;;;;4936445;29;20169;-71
2022/11/16 07:11:39;;;;;;;3.97;3.67;;;10.70;99.90;;;;;;4919037;29;20182;-71
2022/11/16 07:14:05;;;;;;;3.37;3.00;;;10.70;99.90;;;;;;4935515;29;20262;-71
2022/11/16 07:16:33;;;;;;;4.30;3.33;;;10.70;99.90;;;;;;4935579;29;20178;-70
2022/11/16 07:18:59;;;;;;;3.50;3.13;;;10.70;99.90;;;;;;4936041;29;20173;-70
2022/11/16 07:21:25;;;;;;;2.70;2.50;;;10.80;99.90;;;;;;4935748;29;20253;-71
2022/11/16 07:23:50;;;;;;;3.27;2.53;;;10.80;99.90;;;;;;4935812;29;20227;-70
2022/11/16 07:26:16;;;;;;;3.03;2.73;;;10.80;99.90;;;;;;4934742;29;20202;-71
2022/11/16 07:28:42;;;;;;;3.45;3.10;;;10.80;99.90;;;;;;4917114;29;20179;-69
2022/11/16 07:31:09;;;;;;;2.63;2.43;;;10.80;99.90;;;;;;4935878;29;20180;-71
2022/11/16 07:33:35;;;;;;;3.58;2.70;;;10.90;99.90;;;;;;4949894;28;20672;-70
2022/11/16 07:36:11;;;;;;;2.17;2.00;;;10.90;99.90;;;;;;4935609;29;20190;-72
2022/11/16 07:38:37;;;;;;;2.58;2.35;;;10.90;99.90;;;;;;4935478;29;20269;-73
2022/11/16 07:41:05;;;;;;;3.10;2.90;;;10.90;99.90;;;;;;4935733;29;20184;-71
2022/11/16 07:43:36;;;;;;;2.67;2.47;;;11.00;99.90;;;;;;4936385;29;20166;-73
2022/11/16 07:46:08;;;;;;;3.78;3.15;;;11.00;99.90;;;;;;4938286;29;20666;-74
2022/11/16 07:48:34;;;;;;;3.78;2.78;;;11.00;99.90;;;;;;4939462;29;20174;-72
2022/11/16 07:51:01;;;;;;;2.33;1.97;;;11.10;99.90;;;;;;4939171;29;20193;-73
2022/11/16 07:53:28;;;;;;;2.40;2.20;;;11.10;99.90;;;;;;4937580;29;20407;-72
2022/11/16 07:55:54;;;;;;;3.25;2.30;;;11.10;99.90;;;;;;4939138;29;20518;-72
2022/11/16 07:58:21;;;;;;;3.67;3.37;;;11.20;99.90;;;;;;4938984;29;20188;-71
2022/11/16 08:00:47;;;;;;;3.58;3.20;;;11.30;99.90;;;;;;4938842;29;20206;-72
2022/11/16 08:03:13;;;;;;;2.30;2.10;;;11.30;99.90;;;;;;4939034;29;20268;-71
2022/11/16 08:05:39;;;;;;;3.40;2.97;;;11.40;99.90;;;;;;4937853;29;20489;-71
2022/11/16 08:08:05;;;;;;;2.55;2.15;;;11.50;99.90;;;;;;4938867;29;20182;-69
2022/11/16 08:10:31;;;;;;;2.60;2.27;;;11.50;99.90;;;;;;4921464;29;20185;-70
2022/11/16 08:12:58;;;;;;;1.70;1.60;;;11.50;99.90;;;;;;4953134;29;20419;-70
2022/11/16 08:15:24;;;;;;;1.50;1.40;;;11.50;99.90;;;;;;4938594;29;20437;-69
2022/11/16 08:17:50;;;;;;;1.27;1.23;;;11.60;99.90;;;;;;4937552;29;20903;-69
2022/11/16 08:20:16;;;;;;;1.50;1.40;;;11.60;99.90;;;;;;4938919;29;20628;-69
2022/11/16 08:22:42;;;;;;;3.70;1.53;;;11.60;99.90;;;;;;4938104;29;20332;-70
2022/11/16 08:25:08;;;;;;;2.33;1.27;;;11.60;99.90;;;;;;4938775;29;20455;-70
2022/11/16 08:27:34;;;;;;;0.90;0.90;;;11.70;99.90;;;;;;4938886;29;20471;-70
2022/11/16 08:30:02;;;;;;;2.17;1.50;;;11.70;99.90;;;;;;4938196;29;20413;-69
2022/11/16 08:32:28;;;;;;;2.27;1.30;;;11.80;99.90;;;;;;4938608;29;20284;-70
2022/11/16 08:34:54;;;;;;;1.80;1.07;;;11.90;99.90;;;;;;4938158;29;20448;-70
2022/11/16 08:37:20;;;;;;;1.13;1.03;;;12.10;99.90;;;;;;4938134;29;21051;-71
2022/11/16 08:39:45;;;;;;;1.07;1.07;;;12.30;99.90;;;;;;4937832;29;20934;-70
2022/11/16 08:42:11;;;;;;;1.17;1.13;;;12.40;99.90;;;;;;4938394;29;20193;-73
2022/11/16 08:44:37;;;;;;;1.80;1.20;;;12.50;99.90;;;;;;4937742;29;20208;-73
2022/11/16 08:47:02;;;;;;;2.90;1.20;;;12.70;99.90;;;;;;4938286;29;20187;-74
2022/11/16 08:49:28;;;;;;;2.03;1.00;;;12.80;99.90;;;;;;4937173;29;20181;-76
2022/11/16 08:51:54;;;;;;;1.47;0.80;;;13.00;99.90;;;;;;4938163;29;20180;-74
2022/11/16 08:54:20;;;;;;;0.70;0.70;;;13.10;99.90;;;;;;4937456;29;20440;-76
2022/11/16 08:56:45;;;;;;;1.17;1.13;;;13.30;99.90;;;;;;4938348;29;20170;-75
2022/11/16 08:59:11;;;;;;;1.67;1.30;;;13.30;99.90;;;;;;4938038;29;20196;-75
2022/11/16 09:01:37;;;;;;;6.33;2.50;;;13.50;99.90;;;;;;4938064;29;20182;-73
2022/11/16 09:04:02;;;;;;;4.87;1.27;;;13.60;99.90;;;;;;4937577;29;20198;-73
2022/11/16 09:06:28;;;;;;;3.13;0.80;;;13.60;99.90;;;;;;4937153;29;20205;-74
2022/11/16 09:08:55;;;;;;;1.23;0.93;;;13.70;99.90;;;;;;4937821;29;20181;-75
2022/11/16 09:11:22;;;;;;;4.63;1.03;;;13.80;99.90;;;;;;4937767;29;20174;-75
2022/11/16 09:13:49;;;;;;;4.40;1.33;;;13.90;99.90;;;;;;4937359;29;20536;-73
2022/11/16 09:16:16;;;;;;;6.43;1.00;;;13.90;99.90;;;;;;4937699;29;20475;-75
2022/11/16 09:18:45;;;;;;;1.30;1.07;;;14.00;99.90;;;;;;4937647;29;20410;-75
2022/11/16 09:21:11;;;;;;;1.50;1.00;;;14.40;99.90;;;;;;4937565;29;20481;-75
2022/11/16 09:23:37;;;;;;;1.40;1.30;;;14.50;99.90;;;;;;4935775;29;20527;-75
2022/11/16 09:26:04;;;;;;;1.37;1.00;;;14.60;99.90;;;;;;4935587;29;20485;-74
2022/11/16 09:28:30;;;;;;;0.60;0.60;;;14.60;99.90;;;;;;4935646;29;20715;-75
2022/11/16 09:30:59;;;;;;;1.70;1.10;;;14.90;99.90;;;;;;4935558;29;20499;-75
2022/11/16 09:33:27;;;;;;;1.07;1.07;;;;;;;;;;4935512;29;20631;-75
2022/11/16 09:35:52;;;;;;;1.17;1.07;;;15.50;99.90;;;;;;4935247;29;20413;-76
2022/11/16 09:38:18;;;;;;;1.73;0.97;;;17.30;99.90;;;;;;4937231;29;20433;-76
2022/11/16 09:40:45;;;;;;;1.03;0.70;;;18.00;99.90;;;;;;4937421;29;20202;-76
2022/11/16 09:43:41;;;;;;;2.20;0.90;;;18.60;99.90;;;;;;4937015;29;20586;-74
2022/11/16 09:46:23;;;;;;;0.70;0.70;;;19.00;99.90;;;;;;4937612;29;20471;-73
2022/11/16 09:48:49;;;;;;;0.87;0.87;;;19.40;99.90;;;;;;4937549;29;20392;-73
2022/11/16 09:51:18;;;;;;;1.40;0.83;;;19.40;99.90;;;;;;4937384;29;20472;-73
2022/11/16 09:53:50;;;;;;;1.03;0.77;;;19.50;99.90;;;;;;4951546;29;20433;-76
2022/11/16 09:56:21;;;;;;;1.77;1.67;;;19.70;99.90;;;;;;4937362;29;20745;-75
2022/11/16 09:59:04;;;;;;;1.63;1.00;;;19.70;99.90;;;;;;4937153;29;20451;-72
2022/11/16 10:01:46;;;;;;;0.70;0.70;;;19.30;99.90;;;;;;4937223;29;20479;-75
2022/11/16 10:04:42;;;;;;;2.83;0.90;;;18.80;99.90;;;;;;4936511;29;20417;-75
2022/11/16 10:07:10;;;;;;;2.13;1.00;;;18.20;99.90;;;;;;4936314;29;20423;-74
2022/11/16 10:09:36;;;;;;;1.13;1.07;;;17.60;99.90;;;;;;4936792;29;20910;-75
2022/11/16 10:12:42;;;;;;;1.07;1.00;;;17.20;99.90;;;;;;4936933;29;20372;-73
2022/11/16 10:15:36;;;;;;;2.03;0.87;;;16.70;99.90;;;;;;4937084;29;20228;-74
2022/11/16 10:18:20;;;;;;;7.20;4.73;;;16.50;99.90;;;;;;4936911;29;20887;-75
2022/11/16 10:21:19;;;;;;;4.20;1.80;;;16.20;99.90;;;;;;4936959;29;20376;-75
2022/11/16 10:24:01;;;;;;;4.00;1.57;;;15.90;99.90;;;;;;4936380;29;20971;-73
2022/11/16 10:26:48;;;;;;;1.27;0.80;;;15.90;99.90;;;;;;4936730;29;20445;-72
2022/11/16 10:29:32;;;;;;;1.70;1.13;;;15.90;99.90;;;;;;4936768;29;20412;-73
2022/11/16 10:31:58;;;;;;;0.97;0.87;;;16.30;99.90;;;;;;4936585;29;20396;-72
2022/11/16 10:34:48;;;;;;;1.17;1.07;;;16.70;99.90;;;;;;4936152;29;20425;-72
2022/11/16 10:37:14;;;;;;;0.97;0.93;;;17.40;99.90;;;;;;4936409;29;20177;-73
2022/11/16 10:39:40;;;;;;;1.20;1.00;;;17.70;99.90;;;;;;4936497;29;20389;-72
2022/11/16 10:42:13;;;;;;;0.97;0.90;;;17.70;99.90;;;;;;4936453;29;20236;-73
2022/11/16 10:44:43;;;;;;;1.37;1.03;;;17.60;99.90;;;;;;4936065;29;20425;-72
2022/11/16 10:47:18;;;;;;;1.00;0.90;;;17.70;99.90;;;;;;4936728;29;20413;-74
2022/11/16 10:49:59;;;;;;;2.60;1.07;;;18.00;99.90;;;;;;4936677;29;20379;-72
2022/11/16 10:52:25;;;;;;;1.43;1.07;;;18.10;99.90;;;;;;4936335;29;20391;-74
2022/11/16 10:54:51;;;;;;;1.30;1.00;;;18.00;99.90;;;;;;4935898;29;20429;-73
2022/11/16 10:57:17;;;;;;;1.97;1.50;;;18.00;99.90;;;;;;4919194;29;20534;-73
2022/11/16 11:00:02;;;;;;;0.90;0.90;;;17.70;99.90;;;;;;4935545;29;20441;-73
2022/11/16 11:02:34;;;;;;;1.57;1.47;;;17.50;99.90;;;;;;4936221;29;20412;-73
2022/11/16 11:05:16;;;;;;;7.50;4.30;;;17.30;99.90;;;;;;4935877;29;20472;-73
2022/11/16 11:08:03;;;;;;;1.03;1.03;;;17.00;99.90;;;;;;4936251;29;20384;-72
2022/11/16 11:10:33;;;;;;;0.77;0.77;;;16.70;99.90;;;;;;4935793;29;20504;-70
2022/11/16 11:13:11;;;;;;;1.07;1.07;;;16.50;99.90;;;;;;4935598;29;20425;-71
2022/11/16 11:15:38;;;;;;;1.00;1.00;;;16.40;99.90;;;;;;4935957;29;20904;-71
2022/11/16 11:18:22;;;;;;;3.70;0.90;;;16.40;99.90;;;;;;4939521;29;20388;-74
2022/11/16 11:21:04;;;;;;;1.03;1.03;;;16.40;99.90;;;;;;4941037;29;20422;-74
2022/11/16 11:23:36;;;;;;;1.10;1.10;;;16.30;99.90;;;;;;4941779;29;20449;-73
2022/11/16 11:26:02;;;;;;;1.30;1.20;;;16.30;99.90;;;;;;4942387;29;20461;-73
2022/11/16 11:28:33;;;;;;;2.07;1.00;;;16.20;99.90;;;;;;4942310;29;20386;-73
2022/11/16 11:31:16;;;;;;;1.10;1.00;;;16.00;99.90;;;;;;4925062;29;20180;-72
2022/11/16 11:33:49;;;;;;;4.20;1.20;;;15.90;99.90;;;;;;4941736;29;20475;-75
2022/11/16 11:36:38;;;;;;;1.33;0.90;;;15.90;99.90;;;;;;4942356;29;20411;-72
2022/11/16 11:39:24;;;;;;;1.60;1.50;;;15.70;99.90;;;;;;4942127;29;20384;-71
2022/11/16 11:42:13;;;;;;;1.03;0.80;;;15.60;99.90;;;;;;4942200;29;20434;-72
2022/11/16 11:44:48;;;;;;;0.70;0.70;;;15.60;99.90;;;;;;4941816;29;20882;-75
2022/11/16 11:47:22;;;;;;;1.17;0.90;;;15.60;99.90;;;;;;4942262;29;20405;-76
2022/11/16 11:50:03;;;;;;;1.70;1.43;;;15.70;99.90;;;;;;4924734;29;20427;-76
2022/11/16 11:52:43;;;;;;;1.20;1.00;;;15.80;99.90;;;;;;4942012;29;20396;-73
2022/11/16 11:55:16;;;;;;;2.10;1.10;;;15.70;99.90;;;;;;4942022;29;20438;-76
2022/11/16 11:57:45;;;;;;;1.17;0.90;;;15.70;99.90;;;;;;4942065;29;20500;-75
2022/11/16 12:00:13;;;;;;;1.27;1.17;;;15.60;99.90;;;;;;4942011;29;20428;-76
2022/11/16 12:02:56;;;;;;;1.33;0.90;;;15.40;99.90;;;;;;4941775;29;20453;-74
2022/11/16 12:05:55;;;;;;;2.33;1.40;;;15.40;99.90;;;;;;4941571;29;20478;-76
2022/11/16 12:08:58;;;;;;;1.20;1.10;;;15.30;99.90;;;;;;4942068;29;20406;-77
2022/11/16 12:11:31;;;;;;;1.37;1.10;;;15.30;99.90;;;;;;4924689;29;20422;-71
2022/11/16 12:13:59;;;;;;;1.43;1.13;;;15.30;99.90;;;;;;4941493;29;20432;-72
2022/11/16 12:16:34;;;;;;;1.63;1.13;;;15.10;99.90;;;;;;4924640;29;20413;-72
2022/11/16 12:19:22;;;;;;;1.07;1.07;;;15.00;99.90;;;;;;4941411;29;20774;-72
2022/11/16 12:22:05;;;;;;;1.80;0.80;;;15.00;99.90;;;;;;4941591;29;20984;-71
2022/11/16 12:24:47;;;;;;;1.10;1.00;;;14.90;99.90;;;;;;4941492;29;20440;-72
2022/11/16 12:27:39;;;;;;;3.50;1.33;;;14.80;99.90;;;;;;4924669;29;20454;-72
2022/11/16 12:30:17;;;;;;;1.07;0.97;;;14.80;99.90;;;;;;4921543;29;20418;-74
2022/11/16 12:32:56;;;;;;;2.20;1.20;;;14.80;99.90;;;;;;4938510;29;20460;-71
2022/11/16 12:35:57;;;;;;;1.03;1.03;;;14.80;99.90;;;;;;4922007;29;21032;-73
2022/11/16 12:38:44;;;;;;;1.17;0.97;;;14.90;99.90;;;;;;4938948;29;20802;-71
2022/11/16 12:41:30;;;;;;;1.23;1.13;;;14.90;99.90;;;;;;4938628;29;20409;-71
2022/11/16 12:43:56;;;;;;;1.43;1.33;;;14.90;99.90;;;;;;4938185;29;20794;-72
2022/11/16 12:46:49;;;;;;;1.47;1.37;;;14.90;99.90;;;;;;4938321;29;20453;-72
2022/11/16 12:49:33;;;;;;;0.90;0.90;;;14.80;99.90;;;;;;4938811;29;20205;-72
2022/11/16 12:52:19;;;;;;;2.23;1.20;;;14.70;99.90;;;;;;4938390;29;20910;-72
2022/11/16 12:55:13;;;;;;;1.13;1.03;;;14.60;99.90;;;;;;4937918;29;20457;-72
2022/11/16 12:57:41;;;;;;;5.83;2.63;;;14.50;99.90;;;;;;4938554;29;20429;-72
2022/11/16 13:00:11;;;;;;;1.50;1.30;;;14.50;99.90;;;;;;4938379;29;20417;-72
2022/11/16 13:03:13;;;;;;;5.30;1.60;;;14.50;99.90;;;;;;4937865;29;20394;-73
2022/11/16 13:05:44;;;;;;;1.00;1.00;;;14.50;99.90;;;;;;4937858;29;21022;-72
2022/11/16 13:08:26;;;;;;;1.70;1.00;;;14.50;99.90;;;;;;4938420;29;20491;-72
2022/11/16 13:10:59;;;;;;;0.70;0.70;;;14.50;99.90;;;;;;4938198;29;20487;-71
2022/11/16 13:13:30;;;;;;;1.40;1.00;;;14.50;99.90;;;;;;4937738;29;20521;-72
2022/11/16 13:15:59;;;;;;;2.00;1.63;;;14.50;99.90;;;;;;4937606;29;20437;-72
2022/11/16 13:18:26;;;;;;;2.20;1.63;;;14.50;99.90;;;;;;4937845;29;20500;-72
2022/11/16 13:21:01;;;;;;;1.27;1.20;;;14.50;99.90;;;;;;4937960;29;20405;-72
2022/11/16 13:23:29;;;;;;;1.70;1.60;;;14.50;99.90;;;;;;4936399;29;20447;-72
2022/11/16 13:25:57;;;;;;;1.83;1.70;;;14.40;99.90;;;;;;4919075;29;20457;-72
2022/11/16 13:29:02;;;;;;;2.70;1.70;;;14.40;99.90;;;;;;4933900;29;20379;-72
2022/11/16 13:31:45;;;;;;;1.90;1.47;;;14.30;99.90;;;;;;4935929;29;20421;-72
2022/11/16 13:34:30;;;;;;;1.43;1.33;;;14.30;99.90;;;;;;4917306;29;20945;-73
2022/11/16 13:36:56;;;;;;;2.87;1.10;;;14.30;99.90;;;;;;4919721;29;20427;-70
2022/11/16 13:39:56;;;;;;;2.30;1.30;;;14.20;99.90;;;;;;4937302;29;20460;-69
2022/11/16 13:42:23;;;;;;;1.20;1.10;;;14.20;99.90;;;;;;4936345;29;20185;-72
2022/11/16 13:44:49;;;;;;;1.97;1.03;;;14.10;99.90;;;;;;4936915;29;20472;-72
2022/11/16 13:47:26;;;;;;;1.80;1.43;;;14.10;99.90;;;;;;4920728;29;20487;-73
2022/11/16 13:50:01;;;;;;;0.97;0.97;;;14.00;99.90;;;;;;4937386;29;20442;-70
2022/11/16 13:52:47;;;;;;;2.93;1.50;;;14.00;99.90;;;;;;4920327;29;20421;-70
2022/11/16 13:55:29;;;;;;;1.43;1.30;;;14.00;99.90;;;;;;4937200;29;20777;-71
2022/11/16 13:57:56;;;;;;;3.57;1.30;;;14.00;99.90;;;;;;4937238;29;20461;-69
2022/11/16 14:00:34;;;;;;;1.40;1.30;;;14.00;99.90;;;;;;4937144;29;20421;-69
2022/11/16 14:03:14;;;;;;;1.60;1.20;;;14.00;99.90;;;;;;4936756;29;20468;-71
2022/11/16 14:05:41;;;;;;;3.57;1.10;;;14.00;99.90;;;;;;4936552;29;20468;-72
2022/11/16 14:08:23;;;;;;;3.70;1.20;;;14.00;99.90;;;;;;4937098;29;20498;-72
2022/11/16 14:10:51;;;;;;;2.30;1.30;;;14.00;99.90;;;;;;4919862;29;20405;-73
2022/11/16 14:13:29;;;;;;;1.73;1.63;;;14.00;99.90;;;;;;4936482;29;20433;-74
2022/11/16 14:16:13;;;;;;;1.90;1.20;;;14.10;99.90;;;;;;4936769;29;20769;-71
2022/11/16 14:18:39;;;;;;;2.40;1.30;;;14.10;99.90;;;;;;4936727;29;20412;-71
2022/11/16 14:21:30;;;;;;;1.73;1.27;;;14.10;99.90;;;;;;4936731;29;20758;-73
2022/11/16 14:24:08;;;;;;;0.90;0.70;;;14.10;99.90;;;;;;4915727;29;20440;-70
2022/11/16 14:27:29;;;;;;;1.30;1.07;;;14.20;99.90;;;;;;4936675;29;20459;-68
2022/11/16 14:30:20;;;;;;;0.90;0.90;;;14.20;99.90;;;;;;4896502;29;20426;-72
2022/11/16 14:32:47;;;;;;;2.00;1.47;;;14.30;99.90;;;;;;4936255;29;20944;-72
2022/11/16 14:35:35;;;;;;;3.60;0.90;;;14.40;99.90;;;;;;4936344;29;20789;-74
2022/11/16 14:38:25;;;;;;;1.37;1.00;;;14.40;99.90;;;;;;4936249;29;20413;-72
2022/11/16 14:40:53;;;;;;;5.10;1.00;;;14.40;99.90;;;;;;4926050;29;20437;-72
2022/11/16 14:43:26;;;;;;;0.70;0.70;;;14.40;99.90;;;;;;4936166;29;20412;-72
2022/11/16 14:46:22;;;;;;;1.37;1.23;;;14.30;99.90;;;;;;4936455;29;20817;-71
2022/11/16 14:48:48;;;;;;;0.80;0.80;;;14.30;99.90;;;;;;4931232;29;20428;-72
2022/11/16 14:51:25;;;;;;;1.03;0.90;;;14.20;99.90;;;;;;4936246;29;20416;-72
2022/11/16 14:53:59;;;;;;;1.20;1.10;;;14.10;99.90;;;;;;4935466;29;20740;-74
2022/11/16 14:56:25;;;;;;;0.70;0.70;;;14.00;99.90;;;;;;4936420;29;20460;-73
2022/11/16 14:58:52;;;;;;;1.23;0.80;;;13.80;99.90;;;;;;4936227;29;20447;-73
2022/11/16 15:01:21;;;;;;;1.47;1.10;;;13.70;99.90;;;;;;4936293;29;20177;-71
2022/11/16 15:04:07;;;;;;;0.60;0.60;;;13.60;99.90;;;;;;4935662;29;20429;-71
2022/11/16 15:06:49;;;;;;;3.00;1.60;;;13.60;99.90;;;;;;4935837;29;20556;-71
2022/11/16 15:09:38;;;;;;;0.80;0.80;;;13.50;99.90;;;;;;4936175;29;20417;-71
2022/11/16 15:14:59;;;;;;;3.50;1.33;;;13.30;99.90;;;;;;4935699;29;20453;-70
2022/11/16 15:17:25;;;;;;;1.97;1.80;;;13.20;99.90;;;;;;4935872;29;20389;-70
2022/11/16 15:19:59;;;;;;;1.90;0.80;;;13.10;99.90;;;;;;4936034;29;21004;-72
2022/11/16 15:22:28;;;;;;;1.13;0.97;;;13.10;99.90;;;;;;4935698;29;20445;-71
2022/11/16 15:25:00;;;;;;;1.30;1.20;;;13.10;99.90;;;;;;4935436;29;20788;-72
2022/11/16 15:27:37;;;;;;;1.37;1.27;;;13.00;99.90;;;;;;4935731;29;20882;-71
2022/11/16 15:30:17;;;;;;;4.70;1.27;;;12.90;99.90;;;;;;4935897;29;20805;-71
2022/11/16 15:32:44;;;;;;;2.20;1.20;;;12.90;99.90;;;;;;4935837;29;20506;-72
2022/11/16 15:35:20;;;;;;;1.20;1.20;;;12.80;99.90;;;;;;4935624;29;20428;-71
2022/11/16 15:37:46;;;;;;;1.83;1.73;;;12.80;99.90;;;;;;4935803;29;20435;-71
2022/11/16 15:40:13;;;;;;;1.60;1.50;;;12.80;99.90;;;;;;4935699;29;20451;-72
2022/11/16 15:42:40;;;;;;;1.23;1.20;;;12.70;99.90;;;;;;4935316;29;20180;-71
2022/11/16 15:45:23;;;;;;;1.83;1.67;;;12.70;99.90;;;;;;4935330;29;20822;-72
2022/11/16 15:47:52;;;;;;;1.80;1.67;;;12.70;99.90;;;;;;4935867;29;20462;-72
2022/11/16 15:50:21;;;;;;;3.00;2.33;;;12.60;99.90;;;;;;4935619;29;20448;-72
2022/11/16 15:52:53;;;;;;;3.07;1.80;;;12.60;99.90;;;;;;4934704;29;20769;-72
2022/11/16 15:55:48;;;;;;;1.70;1.47;;;12.60;99.90;;;;;;4935634;29;20494;-72
2022/11/16 15:58:25;;;;;;;3.73;2.00;;;12.50;99.90;;;;;;4934148;29;20425;-72
2022/11/16 16:00:52;;;;;;;5.07;2.50;;;12.40;99.90;;;;;;4935560;29;20395;-74
2022/11/16 16:03:23;;;;;;;2.30;2.10;;;12.40;99.90;;;;;;4935156;29;20421;-75
2022/11/16 16:05:50;;;;;;;2.83;1.63;;;12.40;99.90;;;;;;4938254;29;20463;-73
2022/11/16 16:08:30;;;;;;;6.10;1.60;;;12.30;99.90;;;;;;4939008;29;20413;-72
2022/11/16 16:11:31;;;;;;;1.37;1.27;;;12.20;99.90;;;;;;4939158;29;20474;-72
2022/11/16 16:14:00;;;;;;;0.90;0.90;;;12.10;99.90;;;;;;4879614;29;20457;-74
2022/11/16 16:16:36;;;;;;;4.00;1.20;;;12.10;99.90;;;;;;4927957;29;20419;-74
2022/11/16 16:19:26;;;;;;;1.27;1.17;;;12.00;99.90;;;;;;4938924;29;20836;-72
2022/11/16 16:21:57;;;;;;;1.20;1.20;;;11.90;99.90;;;;;;4939153;29;20435;-71
2022/11/16 16:24:35;;;;;;;2.00;1.60;;;11.80;99.90;;;;;;4938295;29;20767;-71
2022/11/16 16:27:00;;;;;;;2.43;1.50;;;11.70;99.90;;;;;;4938355;29;20503;-70
2022/11/16 16:29:27;;;;;;;1.30;1.20;;;11.60;99.90;;;;;;4938698;29;20440;-72
2022/11/16 16:31:54;;;;;;;1.55;1.45;;;11.50;99.90;;;;;;4938717;29;20175;-71
2022/11/16 16:34:19;;;;;;;1.10;1.10;;;11.50;99.90;;;;;;4938215;29;20198;-71
2022/11/16 16:36:45;;;;;;;1.33;1.07;;;11.40;99.90;;;;;;4938546;29;20179;-71
2022/11/16 16:39:10;;;;;;;2.10;1.63;;;11.30;99.90;;;;;;4921632;29;20232;-72
2022/11/16 16:41:37;;;;;;;1.70;1.60;;;11.20;99.90;;;;;;4938621;29;20526;-71
2022/11/16 16:44:13;;;;;;;1.70;1.60;;;11.10;99.90;;;;;;4938063;29;20191;-72
2022/11/16 16:46:38;;;;;;;2.40;2.20;;;11.00;99.90;;;;;;4938636;29;20587;-71
2022/11/16 16:49:04;;;;;;;3.80;1.70;;;10.90;99.90;;;;;;4938638;29;20169;-71
2022/11/16 16:51:30;;;;;;;4.63;1.40;;;10.90;99.90;;;;;;4938431;29;20178;-71
2022/11/16 16:53:55;;;;;;;1.77;1.67;;;10.80;99.90;;;;;;4937765;29;20734;-72
2022/11/16 16:56:21;;;;;;;7.67;3.00;;;10.70;99.90;;;;;;4938363;29;20189;-68
2022/11/16 16:58:46;;;;;;;7.33;2.73;;;10.70;99.90;;;;;;4938519;29;20197;-69
2022/11/16 17:01:12;;;;;;;1.90;1.80;;;10.60;99.90;;;;;;4938050;29;20177;-69
2022/11/16 17:03:38;;;;;;;2.07;1.87;;;10.50;99.90;;;;;;4937652;29;20198;-70
2022/11/16 17:06:03;;;;;;;1.67;1.43;;;10.40;99.90;;;;;;4937633;29;20205;-69
2022/11/16 17:08:37;;;;;;;2.87;1.83;;;10.40;99.90;;;;;;4938267;29;20173;-70
2022/11/16 17:11:03;;;;;;;1.98;1.88;;;10.40;99.90;;;;;;4937835;29;20197;-70
2022/11/16 17:13:29;;;;;;;1.90;1.77;;;10.30;99.90;;;;;;4937525;29;20260;-71
2022/11/16 17:15:55;;;;;;;2.45;2.25;;;10.20;99.90;;;;;;4937499;29;20225;-72
2022/11/16 17:18:21;;;;;;;3.17;1.80;;;10.20;99.90;;;;;;4920817;29;20646;-70
2022/11/16 17:20:47;;;;;;;1.85;1.75;;;10.10;99.90;;;;;;4937462;29;20388;-71
2022/11/16 17:23:12;;;;;;;3.57;1.70;;;10.10;99.90;;;;;;4937302;29;20647;-72
2022/11/16 17:25:38;;;;;;;1.20;1.20;;;10.00;99.90;;;;;;4937609;29;20209;-71
2022/11/16 17:28:03;;;;;;;2.87;2.23;;;10.00;99.90;;;;;;4937398;29;20176;-70
2022/11/16 17:30:29;;;;;;;6.20;2.67;;;9.90;99.90;;;;;;4937412;29;20236;-72
2022/11/16 17:32:55;;;;;;;3.90;2.10;;;9.80;99.90;;;;;;4919859;29;20180;-71
2022/11/16 17:35:21;;;;;;;2.35;1.80;;;9.70;99.90;;;;;;4937380;29;20288;-71
2022/11/16 17:37:47;;;;;;;2.45;2.25;;;9.80;99.90;;;;;;4937067;29;20216;-72
2022/11/16 17:40:13;;;;;;;2.10;1.87;;;9.70;99.90;;;;;;4919198;29;20182;-74
2022/11/16 17:42:39;;;;;;;2.33;2.13;;;9.70;99.90;;;;;;4936333;29;20205;-71
2022/11/16 17:45:05;;;;;;;3.33;2.80;;;9.60;99.90;;;;;;4937185;29;20583;-72
2022/11/16 17:47:32;;;;;;;2.38;2.17;;;9.60;99.90;;;;;;4936579;29;20197;-70
2022/11/16 17:49:57;;;;;;;3.40;2.38;;;9.60;99.90;;;;;;4935760;29;20205;-70
2022/11/16 17:52:23;;;;;;;2.37;2.00;;;9.60;99.90;;;;;;4936643;29;20212;-71
2022/11/16 17:54:49;;;;;;;7.40;3.93;;;9.50;99.90;;;;;;4936213;29;20197;-69
2022/11/16 17:57:14;;;;;;;3.33;2.97;;;9.50;99.90;;;;;;4935997;29;20675;-69
2022/11/16 17:59:40;;;;;;;3.53;2.90;;;9.60;99.90;;;;;;4936429;29;20212;-70
2022/11/16 18:02:05;;;;;;;4.60;2.97;;;9.60;99.90;;;;;;4919062;29;20181;-70
2022/11/16 18:04:31;;;;;;;3.30;2.93;;;9.60;99.90;;;;;;4917986;29;20205;-69
2022/11/16 18:06:58;;;;;;;3.53;1.83;;;9.60;99.90;;;;;;4935751;29;20216;-69
2022/11/16 18:09:24;;;;;;;1.92;1.83;;;9.70;99.90;;;;;;4935839;29;20332;-70
2022/11/16 18:11:50;;;;;;;2.27;2.03;;;9.80;99.90;;;;;;4935393;29;20529;-72
2022/11/16 18:14:15;;;;;;;3.17;2.10;;;9.90;99.90;;;;;;4936781;29;20209;-72
2022/11/16 18:16:42;;;;;;;2.27;2.17;;;9.90;99.90;;;;;;4935871;29;20421;-73
2022/11/16 18:19:08;;;;;;;3.33;3.13;;;9.90;99.90;;;;;;4935935;29;20180;-73
2022/11/16 18:21:39;;;;;;;2.55;2.10;;;9.90;99.90;;;;;;4935776;29;20182;-74